Low Moor, Iowa
Current Conditions -  °F | °C
As of 9:15 PM on Friday 21 Nov 2014 (Local Time) from KCWI Reporting Station
Overcast Overcast  
Wind Chill: 27°   Ceiling: 2100
Heat Index: 36°   Visibility: 10mi
Dew Point: 14°   Wind: 13mph
Humidity: 41%   Direction: 180°S
Pressure: 30.18"   Gusts: NA
Location:  41.8°N, 90.35°W
Report Text: KCWI 220315Z AUTO 18011KT 10SM OVC021 02/M10 A3018 RMK AO1
Loading
Personal Weather Stations






























Interactive Weather Map New forecast layout! Learn more

10-Day Weather Forecast

Advertisements
Track Severe Weather on mobile